createdAt,value
2023-02-04T00:04:17.995Z,102090.81
2023-02-04T00:07:19.629Z,102103.00
2023-02-04T00:13:39.888Z,102099.09
2023-02-04T00:16:06.726Z,102111.28
2023-02-04T00:18:58.433Z,102114.97
2023-02-04T00:21:46.299Z,102120.56
2023-02-04T00:25:07.745Z,102126.13
2023-02-04T00:27:56.704Z,102129.78
2023-02-04T00:30:44.729Z,102126.00
2023-02-04T00:33:52.489Z,102132.91
2023-02-04T00:36:45.974Z,102144.47
2023-02-04T00:45:24.323Z,102148.94
2023-02-04T00:47:58.156Z,102146.19
2023-02-04T00:50:44.321Z,102144.97
2023-02-04T00:53:25.726Z,102154.50
2023-02-04T00:56:01.001Z,102146.97
2023-02-04T00:58:39.587Z,102154.28
2023-02-04T01:01:28.614Z,102149.53
2023-02-04T01:03:55.546Z,102141.72
2023-02-04T01:06:27.074Z,102154.16
2023-02-04T01:09:01.813Z,102157.06
2023-02-04T01:12:02.120Z,102154.38
2023-02-04T01:15:10.209Z,102164.31
2023-02-04T01:17:47.057Z,102166.56
2023-02-04T01:20:21.570Z,102168.59
2023-02-04T01:23:07.975Z,102171.72
2023-02-04T01:25:40.616Z,102167.63
2023-02-04T01:28:24.148Z,102179.75
2023-02-04T01:30:51.766Z,102177.72
2023-02-04T01:33:22.187Z,102184.28
2023-02-04T01:43:09.523Z,102171.91
2023-02-04T01:45:46.669Z,102185.13
2023-02-04T01:54:40.265Z,102205.53
2023-02-04T01:57:32.127Z,102206.31
2023-02-04T02:00:21.068Z,102208.59
2023-02-04T02:02:51.628Z,102206.94
2023-02-04T02:05:24.664Z,102204.03
2023-02-04T02:08:31.669Z,102216.41
2023-02-04T02:13:53.922Z,102206.53
2023-02-04T02:16:20.651Z,102218.06
2023-02-04T02:19:15.598Z,102205.13
2023-02-04T02:25:35.104Z,102214.34
2023-02-04T02:28:13.942Z,102208.19
2023-02-04T02:30:41.214Z,102214.00
2023-02-04T02:33:08.810Z,102214.59
2023-02-04T02:35:44.947Z,102210.47
2023-02-04T02:38:27.470Z,102214.00
2023-02-04T02:41:14.661Z,102221.41
2023-02-04T02:44:16.160Z,102212.34
2023-02-04T02:57:34.935Z,102222.28
2023-02-04T03:00:42.154Z,102227.44
2023-02-04T03:06:56.510Z,102232.56
2023-02-04T03:16:40.031Z,102238.75
2023-02-04T03:19:57.832Z,102238.75
2023-02-04T03:22:46.249Z,102242.88
2023-02-04T03:25:20.950Z,102249.47
2023-02-04T03:31:14.499Z,102253.16
2023-02-04T03:33:42.533Z,102250.47
2023-02-04T03:36:09.456Z,102248.84
2023-02-04T03:38:35.962Z,102260.97
2023-02-04T03:41:02.604Z,102261.38
2023-02-04T03:43:54.208Z,102265.91
2023-02-04T03:46:24.456Z,102272.91
2023-02-04T03:48:54.314Z,102274.97
2023-02-04T03:51:36.193Z,102272.50
2023-02-04T03:54:28.235Z,102266.31
2023-02-04T03:57:41.253Z,102280.88
2023-02-04T04:00:17.125Z,102292.84
2023-02-04T04:03:12.267Z,102292.84
2023-02-04T04:09:15.340Z,102301.72
2023-02-04T04:12:08.418Z,102300.66
2023-02-04T04:14:41.079Z,102302.06
2023-02-04T04:17:14.727Z,102299.19
2023-02-04T04:19:48.749Z,102294.06
2023-02-04T04:22:30.970Z,102304.53
2023-02-04T04:25:36.470Z,102309.88
2023-02-04T04:28:06.472Z,102316.09
2023-02-04T04:30:39.352Z,102322.66
2023-02-04T04:33:11.990Z,102325.53
2023-02-04T04:35:44.587Z,102319.91
2023-02-04T04:38:15.094Z,102338.00
2023-02-04T04:53:14.253Z,102341.91
2023-02-04T04:55:49.827Z,102339.47
2023-02-04T04:58:58.125Z,102346.63
2023-02-04T05:01:24.891Z,102351.75
2023-02-04T05:07:03.700Z,102345.56
2023-02-04T05:10:18.037Z,102336.56
2023-02-04T05:12:46.565Z,102346.69
2023-02-04T05:15:13.669Z,102340.34
2023-02-04T05:17:43.606Z,102342.59
2023-02-04T05:20:13.466Z,102340.78
2023-02-04T05:22:46.115Z,102338.25
2023-02-04T05:25:47.813Z,102340.47
2023-02-04T05:28:15.694Z,102340.63
2023-02-04T05:33:27.110Z,102362.34
2023-02-04T05:36:15.516Z,102372.00
2023-02-04T05:42:16.744Z,102384.63
2023-02-04T05:45:15.012Z,102388.13
2023-02-04T05:48:04.546Z,102380.31
2023-02-04T05:50:39.409Z,102379.91
2023-02-04T05:53:45.801Z,102388.69
2023-02-04T05:56:19.919Z,102397.03
2023-02-04T05:58:52.605Z,102389.38
2023-02-04T06:01:31.261Z,102392.63
2023-02-04T06:03:57.751Z,102396.50
2023-02-04T06:06:43.225Z,102397.16
2023-02-04T06:09:18.029Z,102404.97
2023-02-04T06:11:44.585Z,102411.97
2023-02-04T06:14:17.187Z,102409.09
2023-02-04T06:16:49.699Z,102421.84
2023-02-04T06:19:16.208Z,102433.34
2023-02-04T06:21:59.253Z,102432.13
2023-02-04T06:28:19.480Z,102427.94
2023-02-04T06:30:56.177Z,102429.59
2023-02-04T06:33:24.110Z,102436.97
2023-02-04T06:39:40.504Z,102427.84
2023-02-04T06:42:10.111Z,102430.06
2023-02-04T06:45:18.930Z,102428.03
2023-02-04T06:47:51.060Z,102432.59
2023-02-04T06:50:26.873Z,102434.06
2023-02-04T06:52:59.667Z,102443.78
2023-02-04T06:55:45.952Z,102439.91
2023-02-04T06:58:21.640Z,102442.44
2023-02-04T07:00:55.681Z,102448.16
2023-02-04T07:04:15.483Z,102453.91
2023-02-04T07:06:42.023Z,102453.91
2023-02-04T07:09:12.535Z,102446.69
2023-02-04T07:11:39.513Z,102458.84
2023-02-04T07:14:06.032Z,102473.88
2023-02-04T07:16:32.521Z,102488.03
2023-02-04T07:18:59.140Z,102495.47
2023-02-04T07:21:25.671Z,102479.25
2023-02-04T07:23:58.411Z,102492.66
2023-02-04T07:26:24.879Z,102490.88
2023-02-04T07:28:52.178Z,102491.75
2023-02-04T07:31:18.797Z,102487.84
2023-02-04T07:33:45.457Z,102490.97
2023-02-04T07:36:13.347Z,102501.91
2023-02-04T07:38:59.265Z,102499.84
2023-02-04T07:41:28.815Z,102502.34
2023-02-04T07:44:01.517Z,102508.13
2023-02-04T07:46:34.549Z,102515.13
2023-02-04T07:51:47.932Z,102521.09
2023-02-04T07:54:56.683Z,102531.63
2023-02-04T07:57:30.149Z,102538.06
2023-02-04T07:59:59.613Z,102529.63
2023-02-04T08:02:38.172Z,102544.06
2023-02-04T08:05:31.666Z,102543.00
2023-02-04T08:08:04.090Z,102540.59
2023-02-04T08:19:49.423Z,102550.56
2023-02-04T08:22:22.274Z,102557.72
2023-02-04T08:24:55.226Z,102559.41
2023-02-04T08:27:23.489Z,102559.00
2023-02-04T08:29:56.394Z,102567.28
2023-02-04T08:32:48.373Z,102564.47
2023-02-04T08:35:30.255Z,102567.78
2023-02-04T08:37:56.840Z,102568.25
2023-02-04T08:40:29.871Z,102577.31
2023-02-04T08:43:35.240Z,102580.22
2023-02-04T08:46:09.015Z,102589.34
2023-02-04T08:48:41.968Z,102583.22
2023-02-04T08:51:11.890Z,102575.41
2023-02-04T08:57:12.798Z,102597.91
2023-02-04T08:59:39.440Z,102600.22
2023-02-04T09:02:06.751Z,102596.91
2023-02-04T09:04:43.696Z,102600.03
2023-02-04T09:11:15.741Z,102606.47
2023-02-04T09:13:42.329Z,102606.31
2023-02-04T09:16:08.991Z,102609.41
2023-02-04T09:18:51.622Z,102613.53
2023-02-04T09:21:22.061Z,102607.75
2023-02-04T09:35:07.215Z,102612.03
2023-02-04T09:37:36.916Z,102611.41
2023-02-04T09:49:56.523Z,102611.72
2023-02-04T10:04:13.514Z,102639.88
2023-02-04T10:06:52.527Z,102644.00
2023-02-04T10:09:59.196Z,102644.63
2023-02-04T10:12:52.513Z,102647.53
2023-02-04T10:27:27.640Z,102644.84
2023-02-04T10:30:19.652Z,102653.56
2023-02-04T10:40:19.555Z,102657.78
2023-02-04T10:43:14.267Z,102658.13
2023-02-04T10:52:58.619Z,102657.56
2023-02-04T10:53:18.606Z,102658.06
2023-02-04T10:56:06.302Z,102664.97
2023-02-04T10:58:48.010Z,102664.78
2023-02-04T11:04:29.568Z,102664.19
2023-02-04T11:20:14.869Z,102662.00
2023-02-04T11:23:27.078Z,102656.00
2023-02-04T11:29:42.607Z,102652.44
2023-02-04T11:33:04.985Z,102650.13
2023-02-04T11:36:40.172Z,102646.13
2023-02-04T11:39:32.747Z,102646.78
2023-02-04T11:42:24.543Z,102653.72
2023-02-04T11:45:29.776Z,102646.13
2023-02-04T11:51:37.310Z,102639.31
2023-02-04T11:54:18.836Z,102629.50
2023-02-04T11:59:39.201Z,102639.28
2023-02-04T12:09:18.981Z,102636.94
2023-02-04T12:42:11.813Z,102649.44
2023-02-04T12:44:44.023Z,102656.69
2023-02-04T12:47:14.188Z,102656.06
2023-02-04T12:49:43.848Z,102652.94
2023-02-04T12:52:15.455Z,102659.19
2023-02-04T12:55:05.087Z,102658.91
2023-02-04T12:57:36.974Z,102662.69
2023-02-04T13:00:10.097Z,102662.78
2023-02-04T13:02:36.746Z,102661.03
2023-02-04T13:05:18.196Z,102656.91
2023-02-04T13:08:00.227Z,102658.69
2023-02-04T13:10:31.028Z,102654.16
2023-02-04T13:13:04.585Z,102649.19
2023-02-04T13:15:31.900Z,102658.63
2023-02-04T13:18:01.856Z,102668.34
2023-02-04T13:20:33.528Z,102665.94
2023-02-04T13:23:08.289Z,102663.16
2023-02-04T13:25:58.242Z,102659.03
2023-02-04T13:28:25.189Z,102654.09
2023-02-04T13:30:54.176Z,102649.63
2023-02-04T13:33:20.749Z,102650.28
2023-02-04T13:35:47.407Z,102648.66
2023-02-04T13:38:32.473Z,102643.44
2023-02-04T13:41:02.339Z,102643.94
2023-02-04T13:43:32.559Z,102655.69
2023-02-04T13:45:59.246Z,102653.97
2023-02-04T13:48:51.583Z,102659.50
2023-02-04T13:51:18.552Z,102665.34
2023-02-04T13:53:45.369Z,102669.25
2023-02-04T13:56:12.032Z,102664.97
2023-02-04T14:01:33.126Z,102680.81
2023-02-04T14:04:04.082Z,102677.06
2023-02-04T14:06:34.433Z,102681.31
2023-02-04T14:09:08.948Z,102676.03
2023-02-04T14:11:40.917Z,102679.25
2023-02-04T14:14:09.991Z,102680.97
2023-02-04T14:16:37.968Z,102673.34
2023-02-04T14:19:07.585Z,102676.47
2023-02-04T14:21:37.630Z,102676.28
2023-02-04T14:24:10.591Z,102683.50
2023-02-04T14:26:37.148Z,102689.28
2023-02-04T14:29:06.909Z,102686.59
2023-02-04T14:31:34.020Z,102687.81
2023-02-04T14:34:07.157Z,102682.34
2023-02-04T14:36:35.313Z,102683.59
2023-02-04T14:39:11.075Z,102682.94
2023-02-04T14:41:38.240Z,102681.44
2023-02-04T14:44:08.160Z,102681.44
2023-02-04T14:46:47.552Z,102678.59
2023-02-04T14:49:17.795Z,102668.09
2023-02-04T14:51:49.659Z,102677.41
2023-02-04T14:54:19.657Z,102681.06
2023-02-04T14:57:00.714Z,102673.59
2023-02-04T14:59:36.723Z,102681.44
2023-02-04T15:02:07.323Z,102681.88
2023-02-04T15:04:34.998Z,102685.16
2023-02-04T15:07:04.968Z,102678.78
2023-02-04T15:09:34.729Z,102680.22
2023-02-04T15:12:06.930Z,102682.91
2023-02-04T15:14:38.911Z,102685.56
2023-02-04T15:17:05.487Z,102682.50
2023-02-04T15:19:32.038Z,102687.19
2023-02-04T15:22:00.743Z,102695.81
2023-02-04T15:24:29.449Z,102689.81
2023-02-04T15:26:56.131Z,102692.63
2023-02-04T15:29:27.601Z,102694.91
2023-02-04T15:31:55.840Z,102680.25
2023-02-04T15:34:22.386Z,102690.34
2023-02-04T15:36:49.049Z,102683.09
2023-02-04T15:39:25.915Z,102698.06
2023-02-04T15:41:56.216Z,102696.78
2023-02-04T15:44:26.783Z,102693.34
2023-02-04T15:46:54.758Z,102704.03
2023-02-04T15:49:24.697Z,102695.53
2023-02-04T15:51:51.467Z,102689.69
2023-02-04T15:54:20.793Z,102697.84
2023-02-04T15:56:50.229Z,102697.84
2023-02-04T15:59:16.702Z,102702.38
2023-02-04T16:01:43.230Z,102706.47
2023-02-04T16:04:12.890Z,102706.25
2023-02-04T16:06:53.493Z,102712.28
2023-02-04T16:09:30.743Z,102713.44
2023-02-04T16:11:58.599Z,102717.28
2023-02-04T16:14:25.861Z,102734.50
2023-02-04T16:16:52.445Z,102734.72
2023-02-04T16:19:24.867Z,102736.72
2023-02-04T16:21:57.056Z,102739.03
2023-02-04T16:24:23.678Z,102734.06
2023-02-04T16:26:50.192Z,102741.06
2023-02-04T16:29:17.629Z,102750.09
2023-02-04T16:31:47.575Z,102746.41
2023-02-04T16:34:14.811Z,102751.03
2023-02-04T16:36:43.113Z,102746.94
2023-02-04T16:39:09.627Z,102751.66
2023-02-04T16:41:36.084Z,102756.38
2023-02-04T16:44:02.773Z,102754.28
2023-02-04T16:46:32.190Z,102758.50
2023-02-04T16:49:01.943Z,102761.91
2023-02-04T16:51:31.087Z,102765.16
2023-02-04T16:54:00.924Z,102762.03
2023-02-04T16:56:35.019Z,102772.72
2023-02-04T16:59:05.363Z,102769.69
2023-02-04T17:01:31.868Z,102768.41
2023-02-04T17:03:58.629Z,102771.09
2023-02-04T17:06:29.800Z,102768.41
2023-02-04T17:08:56.973Z,102773.13
2023-02-04T17:11:33.797Z,102772.47
2023-02-04T17:14:01.477Z,102776.53
2023-02-04T17:16:31.502Z,102769.09
2023-02-04T17:19:01.686Z,102778.78
2023-02-04T17:21:29.257Z,102775.94
2023-02-04T17:24:04.279Z,102776.69
2023-02-04T17:26:37.189Z,102775.28
2023-02-04T17:29:08.249Z,102772.81
2023-02-04T17:31:35.354Z,102769.69
2023-02-04T17:34:03.461Z,102776.84
2023-02-04T17:36:33.161Z,102775.66
2023-02-04T17:38:59.751Z,102771.59
2023-02-04T17:41:26.347Z,102779.75
2023-02-04T17:43:54.330Z,102767.19
2023-02-04T17:46:21.235Z,102774.84
2023-02-04T17:48:51.477Z,102771.50
2023-02-04T17:51:18.208Z,102776.03
2023-02-04T17:53:44.789Z,102776.41
2023-02-04T17:56:12.896Z,102783.78
2023-02-04T17:58:43.705Z,102778.16
2023-02-04T18:01:17.118Z,102787.72
2023-02-04T18:03:46.553Z,102786.06
2023-02-04T18:06:26.383Z,102789.22
2023-02-04T18:08:56.515Z,102792.78
2023-02-04T18:11:27.374Z,102792.97
2023-02-04T18:13:55.618Z,102798.94
2023-02-04T18:16:26.623Z,102796.66
2023-02-04T18:18:58.472Z,102799.59
2023-02-04T18:21:29.457Z,102790.63
2023-02-04T18:24:08.026Z,102795.16
2023-02-04T18:26:56.543Z,102790.75
2023-02-04T18:29:33.792Z,102795.66
2023-02-04T18:32:02.333Z,102801.72
2023-02-04T18:34:43.959Z,102800.00
2023-02-04T18:37:25.843Z,102808.00
2023-02-04T18:39:53.942Z,102812.22
2023-02-04T18:42:26.752Z,102808.56
2023-02-04T18:44:55.181Z,102797.59
2023-02-04T18:47:29.693Z,102801.53
2023-02-04T18:50:03.244Z,102806.13
2023-02-04T18:52:44.308Z,102810.44
2023-02-04T18:55:32.304Z,102817.72
2023-02-04T18:58:19.839Z,102808.91
2023-02-04T19:00:52.777Z,102811.66
2023-02-04T19:03:29.792Z,102804.03
2023-02-04T19:05:58.907Z,102807.53
2023-02-04T19:08:28.566Z,102807.34
2023-02-04T19:10:56.869Z,102809.44
2023-02-04T19:13:37.210Z,102810.09
2023-02-04T19:16:26.178Z,102809.72
2023-02-04T19:18:54.905Z,102796.66
2023-02-04T19:21:30.632Z,102805.88
2023-02-04T19:24:21.005Z,102803.94
2023-02-04T19:26:58.111Z,102815.00
2023-02-04T19:29:41.078Z,102819.22
2023-02-04T19:32:25.961Z,102816.38
2023-02-04T19:34:54.773Z,102818.03
2023-02-04T19:37:25.413Z,102822.16
2023-02-04T19:39:54.112Z,102821.34
2023-02-04T19:42:23.236Z,102817.66
2023-02-04T19:45:01.368Z,102818.03
2023-02-04T19:47:40.805Z,102813.06
2023-02-04T19:50:13.648Z,102810.94
2023-02-04T19:52:56.394Z,102821.81
2023-02-04T19:55:26.680Z,102820.81
2023-02-04T19:57:58.233Z,102801.44
2023-02-04T20:00:41.476Z,102808.81
2023-02-04T20:03:18.365Z,102809.47
2023-02-04T20:05:54.846Z,102810.38
2023-02-04T20:08:38.331Z,102807.19
2023-02-04T20:11:23.774Z,102804.78
2023-02-04T20:13:50.849Z,102811.97
2023-02-04T20:16:52.932Z,102820.16
2023-02-04T20:19:30.153Z,102822.09
2023-02-04T20:22:24.613Z,102825.59
2023-02-04T20:24:55.802Z,102828.25
2023-02-04T20:27:26.313Z,102822.28
2023-02-04T20:30:23.527Z,102820.91
2023-02-04T20:32:56.080Z,102829.22
2023-02-04T20:35:23.061Z,102831.50
2023-02-04T20:37:56.813Z,102838.13
2023-02-04T20:40:26.777Z,102850.13
2023-02-04T20:42:56.817Z,102845.41
2023-02-04T20:45:28.420Z,102844.78
2023-02-04T20:48:25.009Z,102857.47
2023-02-04T20:50:55.303Z,102870.19
2023-02-04T20:53:24.290Z,102866.06
2023-02-04T20:55:56.012Z,102866.94
2023-02-04T20:58:36.384Z,102860.97
2023-02-04T21:01:06.230Z,102863.00
2023-02-04T21:03:37.586Z,102873.03
2023-02-04T21:06:16.127Z,102873.66
2023-02-04T21:08:49.785Z,102875.34
2023-02-04T21:11:22.096Z,102866.94
2023-02-04T21:13:49.708Z,102873.59
2023-02-04T21:16:19.257Z,102880.25
2023-02-04T21:18:49.052Z,102878.47
2023-02-04T21:21:16.822Z,102878.97
2023-02-04T21:23:47.078Z,102883.47
2023-02-04T21:26:16.570Z,102882.53
2023-02-04T21:28:47.674Z,102881.91
2023-02-04T21:31:21.069Z,102888.25
2023-02-04T21:33:47.722Z,102878.28
2023-02-04T21:36:15.395Z,102879.38
2023-02-04T21:38:42.116Z,102873.47
2023-02-04T21:41:08.655Z,102867.38
2023-02-04T21:43:35.790Z,102863.41
2023-02-04T21:46:02.355Z,102864.94
2023-02-04T21:48:32.561Z,102868.31
2023-02-04T21:51:04.629Z,102867.69
2023-02-04T21:53:31.486Z,102874.03
2023-02-04T21:56:01.115Z,102863.16
2023-02-04T21:58:33.346Z,102865.31
2023-02-04T22:01:02.869Z,102863.31
2023-02-04T22:06:29.691Z,102858.31
2023-02-04T22:08:59.402Z,102866.03
2023-02-04T22:11:48.300Z,102860.22
2023-02-04T22:14:15.096Z,102870.41
2023-02-04T22:16:46.572Z,102869.09
2023-02-04T22:19:20.886Z,102868.16
2023-02-04T22:21:47.449Z,102867.56
2023-02-04T22:24:20.820Z,102864.13
2023-02-04T22:26:49.731Z,102870.16
2023-02-04T22:29:28.225Z,102874.03
2023-02-04T22:32:00.527Z,102874.88
2023-02-04T22:34:30.231Z,102875.41
2023-02-04T22:37:00.400Z,102876.78
2023-02-04T22:39:30.020Z,102874.09
2023-02-04T22:42:01.782Z,102863.06
2023-02-04T22:44:31.293Z,102866.75
2023-02-04T22:46:57.851Z,102858.28
2023-02-04T22:49:27.213Z,102849.09
2023-02-04T22:51:59.447Z,102853.47
2023-02-04T22:54:26.595Z,102857.50
2023-02-04T22:56:53.140Z,102848.84
2023-02-04T22:59:21.924Z,102856.16
2023-02-04T23:01:48.858Z,102859.84
2023-02-04T23:04:22.041Z,102868.19
2023-02-04T23:06:49.908Z,102860.53
2023-02-04T23:09:16.673Z,102866.03
2023-02-04T23:11:43.486Z,102867.03
2023-02-04T23:14:10.448Z,102866.25
2023-02-04T23:16:38.052Z,102857.16
2023-02-04T23:19:05.075Z,102866.34
2023-02-04T23:21:34.258Z,102861.50
2023-02-04T23:24:00.922Z,102861.16
2023-02-04T23:26:27.792Z,102861.47
2023-02-04T23:28:55.605Z,102858.13
2023-02-04T23:31:22.247Z,102864.63
2023-02-04T23:33:49.767Z,102868.59
2023-02-04T23:36:16.452Z,102874.91
2023-02-04T23:38:43.327Z,102875.28
2023-02-04T23:41:10.584Z,102866.63
2023-02-04T23:43:40.992Z,102875.28
2023-02-04T23:46:11.336Z,102874.91
2023-02-04T23:48:37.901Z,102870.25
2023-02-04T23:51:07.083Z,102875.09
2023-02-04T23:53:36.841Z,102870.72
2023-02-04T23:56:03.750Z,102868.34
2023-02-04T23:58:33.631Z,102874.00
